Time;durP1;ratioP1;P1;durP2;ratioP2;P2;SDS_P1;SDS_P2;PMS_P1;PMS_P2;Temp;Humidity;BMP_temperature;BMP_pressure;BME280_temperature;BME280_humidity;BME280_pressure;Samples;Min_cycle;Max_cycle;Signal;HPM_P1;HPM_P2
2023/07/07 00:01:04;;;;;;;7.38;4.82;;;14.30;99.90;;;;;;5053062;28;20423;-79
2023/07/07 00:03:30;;;;;;;6.90;4.90;;;14.10;99.90;;;;;;5072200;28;20461;-79
2023/07/07 00:05:56;;;;;;;8.80;5.18;;;;;;;;;;5087491;28;20418;-78
2023/07/07 00:08:22;;;;;;;7.50;4.83;;;14.00;99.90;;;;;;5075995;28;20840;-79
2023/07/07 00:10:48;;;;;;;8.15;5.30;;;14.00;99.90;;;;;;5078478;28;20415;-79
2023/07/07 00:13:15;;;;;;;8.30;5.13;;;13.80;99.90;;;;;;5063315;28;20467;-79
2023/07/07 00:15:44;;;;;;;8.03;5.37;;;13.50;99.90;;;;;;5075160;28;20422;-79
2023/07/07 00:18:27;;;;;;;8.50;5.15;;;13.70;99.90;;;;;;5072601;28;20408;-79
2023/07/07 00:21:00;;;;;;;7.80;5.03;;;13.70;99.90;;;;;;5048205;28;20418;-79
2023/07/07 00:23:29;;;;;;;10.02;4.88;;;13.50;99.90;;;;;;5071252;28;20447;-79
2023/07/07 00:26:13;;;;;;;7.82;5.07;;;;;;;;;;5072253;28;20403;-79
2023/07/07 00:28:39;;;;;;;6.70;4.82;;;13.50;99.90;;;;;;5074321;28;20411;-80
2023/07/07 00:31:05;;;;;;;8.52;4.90;;;;;;;;;;5054858;28;20783;-80
2023/07/07 00:33:31;;;;;;;7.57;5.03;;;13.70;99.90;;;;;;5075163;28;20458;-80
2023/07/07 00:35:57;;;;;;;7.70;5.18;;;13.60;99.90;;;;;;5071058;28;20450;-79
2023/07/07 00:38:23;;;;;;;8.10;5.03;;;13.40;99.90;;;;;;5075380;28;20401;-79
2023/07/07 00:40:51;;;;;;;8.30;4.88;;;;;;;;;;5081498;28;20423;-80
2023/07/07 00:43:18;;;;;;;7.85;4.88;;;13.30;99.90;;;;;;5072329;28;20402;-80
2023/07/07 00:45:45;;;;;;;6.10;4.75;;;13.40;99.90;;;;;;5071814;28;20395;-80
2023/07/07 00:48:30;;;;;;;7.40;4.80;;;13.20;99.90;;;;;;5075027;28;20425;-80
2023/07/07 00:50:58;;;;;;;8.13;5.20;;;;;;;;;;5054050;28;20441;-80
2023/07/07 00:53:25;;;;;;;7.35;4.75;;;13.50;99.90;;;;;;5059603;28;20430;-80
2023/07/07 00:56:01;;;;;;;7.65;4.80;;;13.30;99.90;;;;;;5069750;28;20419;-80
2023/07/07 00:58:29;;;;;;;8.63;4.55;;;13.60;99.90;;;;;;5054703;28;20411;-78
2023/07/07 01:01:05;;;;;;;7.40;4.70;;;13.60;99.90;;;;;;5079977;28;20412;-79
2023/07/07 01:03:45;;;;;;;7.28;4.75;;;13.50;99.90;;;;;;5073071;28;20431;-79
2023/07/07 01:06:12;;;;;;;6.20;4.57;;;;;;;;;;5071170;28;20447;-79
2023/07/07 01:08:40;;;;;;;6.40;4.80;;;13.50;99.90;;;;;;5081052;28;20415;-79
2023/07/07 01:11:07;;;;;;;8.15;4.70;;;;;;;;;;5096790;28;20419;-79
2023/07/07 01:13:33;;;;;;;7.97;4.75;;;13.30;99.90;;;;;;5053564;28;20423;-79
2023/07/07 01:16:02;;;;;;;7.38;4.80;;;;;;;;;;5054656;28;20449;-79
2023/07/07 01:18:28;;;;;;;8.43;4.90;;;;;;;;;;5085197;28;20496;-78
2023/07/07 01:21:03;;;;;;;8.37;4.33;;;13.30;99.90;;;;;;5081084;28;20538;-78
2023/07/07 01:24:18;;;;;;;6.72;4.80;;;13.20;99.90;;;;;;5071040;28;20858;-79
2023/07/07 01:27:03;;;;;;;5.85;4.70;;;;;;;;;;5054366;28;20437;-79
2023/07/07 01:29:45;;;;;;;7.15;4.50;;;13.00;99.90;;;;;;5069941;28;20415;-79
2023/07/07 01:32:18;;;;;;;7.40;4.95;;;12.90;99.90;;;;;;5089434;28;20426;-79
2023/07/07 01:34:46;;;;;;;7.00;4.75;;;;;;;;;;5065120;28;20444;-79
2023/07/07 01:37:12;;;;;;;7.82;4.72;;;;;;;;;;5073330;28;20405;-80
2023/07/07 01:39:38;;;;;;;8.63;4.78;;;;;;;;;;5090886;28;20402;-80
2023/07/07 01:42:11;;;;;;;6.97;4.57;;;13.20;99.90;;;;;;5086158;28;20414;-78
2023/07/07 01:44:49;;;;;;;7.10;4.63;;;13.00;99.90;;;;;;5071831;28;20960;-78
2023/07/07 01:47:19;;;;;;;7.80;4.45;;;13.00;99.90;;;;;;5090949;28;20413;-78
2023/07/07 01:50:14;;;;;;;8.32;4.40;;;12.90;99.90;;;;;;5059815;28;20427;-78
2023/07/07 01:52:48;;;;;;;7.70;4.47;;;13.00;99.90;;;;;;5069405;28;20517;-79
2023/07/07 01:55:28;;;;;;;9.73;5.20;;;13.10;99.90;;;;;;5071094;28;20423;-79
2023/07/07 01:57:57;;;;;;;7.53;4.90;;;;;;;;;;5070936;28;20476;-79
2023/07/07 02:00:25;;;;;;;7.78;4.78;;;13.20;99.90;;;;;;5061017;28;20496;-79
2023/07/07 02:02:51;;;;;;;7.03;4.80;;;;;;;;;;5073880;28;20422;-79
2023/07/07 02:05:17;;;;;;;8.95;6.10;;;;;;;;;;5070382;28;20802;-80
2023/07/07 02:07:43;;;;;;;9.30;5.67;;;13.20;99.90;;;;;;5073167;28;21255;-80
2023/07/07 02:10:10;;;;;;;9.60;5.57;;;13.20;99.90;;;;;;5053313;28;20823;-80
2023/07/07 02:12:35;;;;;;;11.98;6.00;;;13.00;99.90;;;;;;5082264;28;20849;-80
2023/07/07 02:15:01;;;;;;;9.15;5.40;;;13.10;99.90;;;;;;5062938;28;20413;-80
2023/07/07 02:17:28;;;;;;;9.77;6.15;;;13.10;99.90;;;;;;5041289;28;20782;-79
2023/07/07 02:19:55;;;;;;;10.35;6.60;;;13.20;99.90;;;;;;5081017;28;20480;-79
2023/07/07 02:22:21;;;;;;;11.13;7.22;;;;;;;;;;5056565;28;20502;-79
2023/07/07 02:24:47;;;;;;;12.47;7.30;;;;;;;;;;5074576;28;20411;-79
2023/07/07 02:27:14;;;;;;;10.70;7.70;;;;;;;;;;5086298;28;20426;-79
2023/07/07 02:29:40;;;;;;;12.50;8.10;;;;;;;;;;5075998;28;20427;-79
2023/07/07 02:32:06;;;;;;;12.85;8.18;;;13.10;99.90;;;;;;5059799;28;21027;-80
2023/07/07 02:34:33;;;;;;;17.83;9.00;;;13.10;99.90;;;;;;5077972;28;20782;-79
2023/07/07 02:36:59;;;;;;;13.75;8.88;;;13.10;99.90;;;;;;5058385;28;20429;-79
2023/07/07 02:39:26;;;;;;;13.32;8.68;;;13.20;99.90;;;;;;5086360;28;20413;-80
2023/07/07 02:41:52;;;;;;;15.05;9.50;;;;;;;;;;5074070;28;20399;-79
2023/07/07 02:44:18;;;;;;;14.60;9.65;;;13.00;99.90;;;;;;5059916;28;20403;-80
2023/07/07 02:46:44;;;;;;;14.80;9.87;;;12.90;99.90;;;;;;5053251;28;20421;-79
2023/07/07 02:49:10;;;;;;;13.57;9.30;;;13.10;99.90;;;;;;5065470;28;20923;-79
2023/07/07 02:51:36;;;;;;;15.55;10.25;;;12.90;99.90;;;;;;5084961;28;20417;-79
2023/07/07 02:54:02;;;;;;;17.98;10.48;;;13.00;99.90;;;;;;5048846;28;20741;-79
2023/07/07 02:56:28;;;;;;;18.17;10.98;;;13.00;99.90;;;;;;5076357;28;20945;-79
2023/07/07 02:58:54;;;;;;;16.27;10.90;;;;;;;;;;5063630;28;20768;-78
2023/07/07 03:01:21;;;;;;;16.08;11.48;;;12.90;99.90;;;;;;5075795;28;20914;-79
2023/07/07 03:03:51;;;;;;;15.77;11.60;;;12.70;99.90;;;;;;5093885;28;20955;-80
2023/07/07 03:06:20;;;;;;;18.08;12.25;;;12.90;99.90;;;;;;5094018;28;20898;-80
2023/07/07 03:08:47;;;;;;;18.03;12.50;;;12.70;99.90;;;;;;5085921;28;20454;-79
2023/07/07 03:11:16;;;;;;;23.08;12.85;;;12.70;99.90;;;;;;5074150;28;20416;-79
2023/07/07 03:13:42;;;;;;;20.52;12.98;;;;;;;;;;5075733;28;20952;-79
2023/07/07 03:16:10;;;;;;;19.20;13.30;;;12.50;99.90;;;;;;5077202;28;20787;-79
2023/07/07 03:18:36;;;;;;;18.52;13.23;;;12.90;99.90;;;;;;5090298;28;20485;-79
2023/07/07 03:21:02;;;;;;;17.30;13.27;;;;;;;;;;5090639;28;20808;-79
2023/07/07 03:23:28;;;;;;;20.30;14.07;;;;;;;;;;5093443;28;21029;-79
2023/07/07 03:25:54;;;;;;;18.05;13.70;;;;;;;;;;5092035;28;20754;-80
2023/07/07 03:28:20;;;;;;;21.23;14.13;;;12.70;99.90;;;;;;5071367;28;20571;-79
2023/07/07 03:30:45;;;;;;;18.20;14.10;;;12.50;99.90;;;;;;5072195;28;20828;-80
2023/07/07 03:33:13;;;;;;;19.88;13.82;;;;;;;;;;5039752;28;20760;-80
2023/07/07 03:35:39;;;;;;;19.08;13.82;;;;;;;;;;5055372;28;21058;-80
2023/07/07 03:38:05;;;;;;;20.88;14.18;;;;;;;;;;5057926;28;20423;-79
2023/07/07 03:40:32;;;;;;;19.48;13.90;;;12.60;99.90;;;;;;5067017;28;20565;-79
2023/07/07 03:42:57;;;;;;;20.20;14.38;;;12.70;99.90;;;;;;5076440;28;20424;-79
2023/07/07 03:45:23;;;;;;;21.27;14.30;;;12.50;99.90;;;;;;5055815;28;20484;-78
2023/07/07 03:47:50;;;;;;;21.13;15.60;;;12.80;99.90;;;;;;5055633;28;20511;-79
2023/07/07 03:50:16;;;;;;;20.77;14.88;;;;;;;;;;5087085;28;20422;-79
2023/07/07 03:52:42;;;;;;;22.00;15.20;;;12.70;99.90;;;;;;5073076;28;20423;-79
2023/07/07 03:55:08;;;;;;;22.10;14.80;;;;;;;;;;5072834;28;20480;-79
2023/07/07 03:57:33;;;;;;;22.33;14.70;;;12.50;99.90;;;;;;5072569;28;20494;-79
2023/07/07 04:00:00;;;;;;;21.65;15.15;;;;;;;;;;5065593;28;20499;-79
2023/07/07 04:02:26;;;;;;;20.65;14.80;;;12.80;99.90;;;;;;5071617;28;20414;-79
2023/07/07 04:04:52;;;;;;;22.05;15.27;;;;;;;;;;5088880;28;20775;-79
2023/07/07 04:07:18;;;;;;;20.20;14.95;;;13.00;99.90;;;;;;5055797;28;20399;-79
2023/07/07 04:09:44;;;;;;;23.63;15.27;;;13.10;99.90;;;;;;5042671;28;21148;-79
2023/07/07 04:12:10;;;;;;;22.15;15.20;;;12.90;99.90;;;;;;5055588;28;20412;-79
2023/07/07 04:14:36;;;;;;;22.85;15.90;;;;;;;;;;5085648;28;20422;-80
2023/07/07 04:17:02;;;;;;;21.23;14.95;;;12.90;99.90;;;;;;5063587;28;20422;-79
2023/07/07 04:19:28;;;;;;;23.33;16.00;;;;;;;;;;5055641;28;20413;-79
2023/07/07 04:21:53;;;;;;;24.83;16.00;;;13.00;99.90;;;;;;5058578;28;20394;-79
2023/07/07 04:24:23;;;;;;;21.35;16.10;;;13.10;99.90;;;;;;5075403;28;20413;-80
2023/07/07 04:26:50;;;;;;;25.38;16.42;;;;;;;;;;5062010;28;20406;-80
2023/07/07 04:29:16;;;;;;;23.38;16.85;;;13.10;99.90;;;;;;5075530;28;20459;-80
2023/07/07 04:31:45;;;;;;;23.27;16.60;;;;;;;;;;5071936;28;20559;-79
2023/07/07 04:34:15;;;;;;;22.77;16.42;;;13.10;99.90;;;;;;5073291;28;20952;-78
2023/07/07 04:36:41;;;;;;;25.77;17.20;;;;;;;;;;5071763;28;20520;-78
2023/07/07 04:39:07;;;;;;;24.53;16.63;;;;;;;;;;5071261;28;20458;-78
2023/07/07 04:41:33;;;;;;;22.60;16.00;;;13.40;99.90;;;;;;5071223;28;20400;-78
2023/07/07 04:44:00;;;;;;;22.50;16.80;;;13.50;99.90;;;;;;5072063;28;20406;-78
2023/07/07 04:46:35;;;;;;;22.75;16.92;;;13.20;99.90;;;;;;5083870;28;20479;-77
2023/07/07 04:49:06;;;;;;;24.55;17.70;;;13.20;99.90;;;;;;5074719;28;20937;-79
2023/07/07 04:51:40;;;;;;;20.47;16.83;;;13.50;99.90;;;;;;5091462;28;20921;-79
2023/07/07 04:54:11;;;;;;;24.67;17.17;;;13.40;99.90;;;;;;5083777;28;20421;-79
2023/07/07 04:56:38;;;;;;;22.50;17.00;;;;;;;;;;5084292;28;20454;-78
2023/07/07 04:59:04;;;;;;;22.77;16.65;;;13.70;99.90;;;;;;5074447;28;20404;-78
2023/07/07 05:01:31;;;;;;;21.25;16.40;;;13.50;99.90;;;;;;5065379;28;20568;-78
2023/07/07 05:03:59;;;;;;;22.55;16.08;;;13.90;99.90;;;;;;5069643;28;20505;-79
2023/07/07 05:06:27;;;;;;;21.33;16.30;;;13.90;99.90;;;;;;5054433;28;20889;-79
2023/07/07 05:08:53;;;;;;;21.77;15.33;;;13.90;99.90;;;;;;5057511;28;20473;-79
2023/07/07 05:11:22;;;;;;;23.25;16.27;;;13.80;99.90;;;;;;5071005;28;20391;-79
2023/07/07 05:13:49;;;;;;;21.23;15.60;;;14.10;99.90;;;;;;5054863;28;20419;-80
2023/07/07 05:16:16;;;;;;;22.83;16.30;;;;;;;;;;5070080;28;20882;-79
2023/07/07 05:18:42;;;;;;;23.83;16.75;;;14.20;99.90;;;;;;5071265;28;20899;-80
2023/07/07 05:21:10;;;;;;;23.17;15.65;;;14.20;99.90;;;;;;5053821;28;20422;-80
2023/07/07 05:23:36;;;;;;;22.50;15.35;;;14.30;99.90;;;;;;5072256;28;20399;-79
2023/07/07 05:26:02;;;;;;;20.63;16.02;;;14.60;99.90;;;;;;5086399;28;20494;-79
2023/07/07 05:28:28;;;;;;;22.48;16.05;;;14.50;99.90;;;;;;5056556;28;21071;-80
2023/07/07 05:30:54;;;;;;;24.27;16.13;;;14.40;99.90;;;;;;5070850;28;20429;-79
2023/07/07 05:33:21;;;;;;;21.75;16.88;;;14.50;99.90;;;;;;5056217;28;20505;-79
2023/07/07 05:35:54;;;;;;;23.30;15.55;;;14.70;99.90;;;;;;5054683;28;20446;-79
2023/07/07 05:38:23;;;;;;;20.88;15.65;;;15.00;99.90;;;;;;5073680;28;20422;-79
2023/07/07 05:40:49;;;;;;;23.35;15.60;;;14.90;99.90;;;;;;5064814;28;20922;-79
2023/07/07 05:43:15;;;;;;;22.80;15.38;;;;;;;;;;5064999;28;20420;-79
2023/07/07 05:45:42;;;;;;;20.98;15.52;;;;;;;;;;5079680;28;20426;-79
2023/07/07 05:48:09;;;;;;;23.52;15.48;;;15.30;99.90;;;;;;5061329;28;20502;-79
2023/07/07 05:50:34;;;;;;;20.23;14.95;;;15.50;99.90;;;;;;5049820;28;20418;-79
2023/07/07 05:53:01;;;;;;;19.80;14.25;;;15.30;99.90;;;;;;5066915;28;20437;-79
2023/07/07 05:55:29;;;;;;;19.10;14.68;;;;;;;;;;5079541;28;20927;-80
2023/07/07 05:57:55;;;;;;;23.43;15.20;;;15.90;99.90;;;;;;5062834;28;20491;-80
2023/07/07 06:00:21;;;;;;;19.40;14.32;;;15.90;99.90;;;;;;5072147;28;20416;-81
2023/07/07 06:02:47;;;;;;;21.65;14.65;;;;;;;;;;5070321;28;20411;-81
2023/07/07 06:05:13;;;;;;;19.88;14.93;;;16.10;99.90;;;;;;5070391;28;20922;-81
2023/07/07 06:07:39;;;;;;;18.35;13.77;;;16.10;99.90;;;;;;5067490;28;20416;-82
2023/07/07 06:10:05;;;;;;;18.52;14.10;;;;;;;;;;5069565;28;20454;-81
2023/07/07 06:12:35;;;;;;;18.60;13.40;;;16.40;99.90;;;;;;5072024;28;20463;-81
2023/07/07 06:15:02;;;;;;;18.50;12.93;;;;;;;;;;5050505;28;20418;-81
2023/07/07 06:17:28;;;;;;;15.95;12.95;;;16.50;99.90;;;;;;5058725;28;20920;-82
2023/07/07 06:19:54;;;;;;;18.38;13.18;;;16.90;99.90;;;;;;5052331;28;20455;-81
2023/07/07 06:22:20;;;;;;;17.42;12.63;;;16.80;99.90;;;;;;5040532;28;20511;-81
2023/07/07 06:24:45;;;;;;;16.60;11.90;;;17.00;99.90;;;;;;5049529;28;20481;-81
2023/07/07 06:27:11;;;;;;;16.50;12.13;;;17.00;99.90;;;;;;5070495;28;20426;-80
2023/07/07 06:29:37;;;;;;;15.27;12.00;;;17.50;99.90;;;;;;5053393;28;20454;-82
2023/07/07 06:32:03;;;;;;;13.85;10.90;;;17.40;99.90;;;;;;5037047;28;20446;-81
2023/07/07 06:34:29;;;;;;;17.88;10.73;;;;;;;;;;5064216;28;20996;-83
2023/07/07 06:36:55;;;;;;;15.70;10.50;;;17.80;99.90;;;;;;5065215;28;20427;-83
2023/07/07 06:39:20;;;;;;;17.00;10.52;;;17.50;99.90;;;;;;5086825;28;20456;-82
2023/07/07 06:41:46;;;;;;;15.68;10.45;;;17.70;99.90;;;;;;5065900;28;20418;-82
2023/07/07 06:44:12;;;;;;;14.57;10.10;;;17.70;99.90;;;;;;5064563;28;20426;-81
2023/07/07 06:46:38;;;;;;;14.20;9.73;;;17.80;99.90;;;;;;5038982;28;20485;-79
2023/07/07 06:49:04;;;;;;;15.98;10.40;;;18.40;99.90;;;;;;5064646;28;20426;-80
2023/07/07 06:51:31;;;;;;;14.20;9.55;;;18.20;99.90;;;;;;5064051;28;20434;-80
2023/07/07 06:53:57;;;;;;;14.80;9.02;;;18.40;99.90;;;;;;5069736;28;20454;-80
2023/07/07 06:56:23;;;;;;;11.75;8.45;;;18.70;99.90;;;;;;5076851;28;20422;-80
2023/07/07 06:58:49;;;;;;;13.05;8.35;;;18.80;99.90;;;;;;5079721;28;20432;-80
2023/07/07 07:01:14;;;;;;;13.73;7.93;;;19.20;99.90;;;;;;5057774;28;20543;-80
2023/07/07 07:03:43;;;;;;;11.37;7.93;;;19.00;99.90;;;;;;5080731;28;20426;-80
2023/07/07 07:06:10;;;;;;;13.73;7.70;;;19.00;99.90;;;;;;5069024;28;20434;-80
2023/07/07 07:08:35;;;;;;;11.23;7.45;;;19.30;99.90;;;;;;5045216;28;20419;-80
2023/07/07 07:11:01;;;;;;;9.63;6.57;;;19.70;99.90;;;;;;5064595;28;20422;-80
2023/07/07 07:13:27;;;;;;;13.23;7.40;;;19.70;99.90;;;;;;5062704;28;20785;-80
2023/07/07 07:15:53;;;;;;;10.15;6.80;;;19.70;99.90;;;;;;5085255;28;20420;-80
2023/07/07 07:18:18;;;;;;;11.70;6.80;;;19.80;99.90;;;;;;5081598;28;20430;-80
2023/07/07 07:20:48;;;;;;;13.73;6.40;;;20.10;99.90;;;;;;5042663;28;20425;-81
2023/07/07 07:23:14;;;;;;;9.65;6.82;;;20.00;99.90;;;;;;5073454;28;20418;-78
2023/07/07 07:25:42;;;;;;;12.30;6.60;;;20.20;99.90;;;;;;5072666;28;20415;-82
2023/07/07 07:28:08;;;;;;;9.48;6.25;;;22.40;99.90;;;;;;5063582;28;20424;-80
2023/07/07 07:30:33;;;;;;;10.10;6.15;;;20.10;99.90;;;;;;5054610;28;20446;-81
2023/07/07 07:33:03;;;;;;;7.93;5.20;;;20.40;99.90;;;;;;5064048;28;20455;-80
2023/07/07 07:35:29;;;;;;;10.60;5.97;;;20.40;99.90;;;;;;5061317;28;20438;-81
2023/07/07 07:37:55;;;;;;;10.17;5.47;;;20.70;99.90;;;;;;5065025;28;20419;-80
2023/07/07 07:40:23;;;;;;;10.67;5.40;;;20.60;99.90;;;;;;5061389;28;20418;-80
2023/07/07 07:42:49;;;;;;;7.72;4.68;;;21.10;99.90;;;;;;5051646;28;20412;-81
2023/07/07 07:45:18;;;;;;;7.25;4.63;;;21.20;99.90;;;;;;5057121;28;20424;-82
2023/07/07 07:47:44;;;;;;;9.50;4.85;;;21.50;99.90;;;;;;5052423;28;20425;-81
2023/07/07 07:50:11;;;;;;;6.80;4.60;;;21.50;99.90;;;;;;5059179;28;20497;-81
2023/07/07 07:52:37;;;;;;;8.68;4.28;;;21.30;99.90;;;;;;5076381;28;20402;-81
2023/07/07 07:55:03;;;;;;;7.15;4.13;;;21.50;99.90;;;;;;5049822;28;20782;-81
2023/07/07 07:57:29;;;;;;;8.90;4.03;;;21.90;99.90;;;;;;5059714;28;20412;-81
2023/07/07 07:59:54;;;;;;;9.67;3.87;;;22.20;99.90;;;;;;5067786;28;20421;-81
2023/07/07 08:02:20;;;;;;;6.60;3.58;;;22.00;99.90;;;;;;5052599;28;20442;-82
2023/07/07 08:04:46;;;;;;;7.18;3.90;;;22.30;99.90;;;;;;5073482;28;20420;-81
2023/07/07 08:07:12;;;;;;;7.20;3.80;;;22.30;99.90;;;;;;5082153;28;20431;-80
2023/07/07 08:09:37;;;;;;;7.70;4.20;;;22.10;99.90;;;;;;5071899;28;20468;-81
2023/07/07 08:12:03;;;;;;;6.57;3.55;;;22.30;99.90;;;;;;5070622;28;20424;-80
2023/07/07 08:14:31;;;;;;;5.87;3.40;;;22.70;99.90;;;;;;5084379;28;20974;-80
2023/07/07 08:17:02;;;;;;;6.32;3.03;;;23.00;99.90;;;;;;5076396;28;20430;-81
2023/07/07 08:19:29;;;;;;;6.05;3.00;;;23.20;99.90;;;;;;5063069;28;20416;-80
2023/07/07 08:21:57;;;;;;;5.60;3.00;;;23.20;99.90;;;;;;5062510;28;20895;-80
2023/07/07 08:24:24;;;;;;;5.70;3.20;;;23.30;99.90;;;;;;5062334;28;20501;-80
2023/07/07 08:26:50;;;;;;;6.40;3.00;;;23.60;99.90;;;;;;5077833;28;20431;-80
2023/07/07 08:29:16;;;;;;;6.78;2.70;;;23.10;99.90;;;;;;5056116;28;20430;-81
2023/07/07 08:31:42;;;;;;;6.00;2.90;;;23.20;99.90;;;;;;5054642;28;20420;-81
2023/07/07 08:34:08;;;;;;;5.22;2.60;;;23.40;99.90;;;;;;5087488;28;20435;-81
2023/07/07 08:36:34;;;;;;;5.15;2.60;;;23.50;99.90;;;;;;5080176;28;20426;-81
2023/07/07 08:39:09;;;;;;;6.82;3.28;;;23.70;99.90;;;;;;5061626;28;20432;-80
2023/07/07 08:41:35;;;;;;;5.50;2.97;;;24.00;99.90;;;;;;5062918;28;20828;-80
2023/07/07 08:44:01;;;;;;;6.00;2.87;;;23.90;99.90;;;;;;5066114;28;20514;-81
2023/07/07 08:46:41;;;;;;;6.17;3.30;;;24.20;99.90;;;;;;5075294;28;20825;-80
2023/07/07 08:49:07;;;;;;;7.28;3.17;;;24.00;99.90;;;;;;5078569;28;20418;-81
2023/07/07 08:51:39;;;;;;;7.40;3.13;;;24.40;99.90;;;;;;5084801;28;20471;-81
2023/07/07 08:54:13;;;;;;;5.82;2.55;;;24.20;99.70;;;;;;5071571;28;20426;-79
2023/07/07 08:57:10;;;;;;;7.40;2.90;;;24.40;99.70;;;;;;5080302;28;20432;-80
2023/07/07 09:00:00;;;;;;;5.55;3.05;;;24.30;98.50;;;;;;5077241;28;20414;-80
2023/07/07 09:02:52;;;;;;;5.43;2.63;;;24.20;97.60;;;;;;5076020;28;20454;-80
2023/07/07 09:05:40;;;;;;;5.00;2.60;;;24.30;97.80;;;;;;5077593;28;20415;-79
2023/07/07 09:08:14;;;;;;;5.15;2.67;;;24.30;98.00;;;;;;5072825;28;20477;-80
2023/07/07 09:11:01;;;;;;;6.45;2.75;;;24.40;97.70;;;;;;5076217;28;20425;-79
2023/07/07 09:13:34;;;;;;;5.75;2.60;;;24.60;97.20;;;;;;5076122;28;20419;-79
2023/07/07 09:16:15;;;;;;;4.00;2.40;;;24.70;97.00;;;;;;5067616;28;20533;-79
2023/07/07 09:19:06;;;;;;;4.40;2.60;;;25.00;97.30;;;;;;5058759;28;20418;-80
2023/07/07 09:21:32;;;;;;;6.65;2.55;;;25.10;96.50;;;;;;5036605;28;20423;-80
2023/07/07 09:24:09;;;;;;;6.72;2.65;;;24.90;95.20;;;;;;5054975;28;20419;-79
2023/07/07 09:26:36;;;;;;;7.28;2.72;;;25.30;96.20;;;;;;5073824;28;20423;-80
2023/07/07 09:29:19;;;;;;;4.05;2.67;;;25.80;95.80;;;;;;5071219;28;20427;-79
2023/07/07 09:31:45;;;;;;;4.75;2.58;;;26.00;94.10;;;;;;5071221;28;20414;-81
2023/07/07 09:34:13;;;;;;;5.00;2.60;;;25.50;93.30;;;;;;5072707;28;20437;-79
2023/07/07 09:36:47;;;;;;;3.97;2.30;;;25.50;93.70;;;;;;5058508;28;20435;-79
2023/07/07 09:39:34;;;;;;;4.20;2.47;;;25.90;92.60;;;;;;5067803;28;20422;-79
2023/07/07 09:42:21;;;;;;;5.13;2.88;;;25.70;91.40;;;;;;5078387;28;20819;-78
2023/07/07 09:44:47;;;;;;;4.90;2.72;;;25.60;91.20;;;;;;5058213;28;20482;-79
2023/07/07 09:47:22;;;;;;;5.72;2.60;;;26.00;92.00;;;;;;5072163;28;20780;-79
2023/07/07 09:49:59;;;;;;;4.03;2.30;;;25.50;90.90;;;;;;5059974;28;20733;-79
2023/07/07 09:52:41;;;;;;;6.13;2.53;;;25.60;91.40;;;;;;5083736;28;20422;-79
2023/07/07 09:55:32;;;;;;;5.83;2.57;;;25.50;91.50;;;;;;5063112;28;20477;-78
2023/07/07 09:58:20;;;;;;;4.82;2.60;;;25.70;91.70;;;;;;5068089;28;20455;-79
2023/07/07 10:00:56;;;;;;;4.95;2.40;;;25.20;91.50;;;;;;5078010;28;20414;-78
2023/07/07 10:03:25;;;;;;;5.57;2.50;;;25.20;92.40;;;;;;5074577;28;20420;-77
2023/07/07 10:05:53;;;;;;;5.65;2.40;;;25.50;92.10;;;;;;5077659;28;20467;-78
2023/07/07 10:08:18;;;;;;;5.85;2.50;;;25.50;91.50;;;;;;5059807;28;20429;-78
2023/07/07 10:10:49;;;;;;;6.70;2.70;;;25.50;91.40;;;;;;5080508;28;20439;-81
2023/07/07 10:13:15;;;;;;;4.43;2.20;;;26.20;91.70;;;;;;5077313;28;20425;-81
2023/07/07 10:16:02;;;;;;;4.53;2.58;;;26.10;91.00;;;;;;5081510;28;20430;-81
2023/07/07 10:18:32;;;;;;;4.90;2.20;;;26.30;90.50;;;;;;5070514;28;20506;-80
2023/07/07 10:21:02;;;;;;;4.20;2.45;;;26.70;90.90;;;;;;5077600;28;20456;-80
2023/07/07 10:23:28;;;;;;;5.63;2.63;;;26.50;90.20;;;;;;5085263;28;20471;-81
2023/07/07 10:25:56;;;;;;;5.40;2.60;;;26.70;90.40;;;;;;5066145;28;20435;-79
2023/07/07 10:28:24;;;;;;;5.97;2.50;;;26.90;90.20;;;;;;5082666;28;20845;-79
2023/07/07 10:30:51;;;;;;;4.15;2.17;;;26.90;90.00;;;;;;5081460;28;20522;-82
2023/07/07 10:33:21;;;;;;;6.55;2.75;;;26.90;90.20;;;;;;5062832;28;20473;-80
2023/07/07 10:35:47;;;;;;;5.40;2.50;;;27.20;89.80;;;;;;5081372;28;20505;-80
2023/07/07 10:38:13;;;;;;;5.68;2.60;;;26.90;90.30;;;;;;5086112;28;20476;-79
2023/07/07 10:40:41;;;;;;;4.35;2.15;;;26.50;89.70;;;;;;5053703;28;20982;-80
2023/07/07 10:43:15;;;;;;;4.65;2.70;;;26.50;89.60;;;;;;5076561;28;20415;-80
2023/07/07 10:45:47;;;;;;;4.65;2.42;;;26.30;89.00;;;;;;5076679;28;20425;-80
2023/07/07 10:48:14;;;;;;;5.03;2.60;;;26.30;89.80;;;;;;5077649;28;20464;-80
2023/07/07 10:50:52;;;;;;;5.22;2.33;;;26.70;89.00;;;;;;5075070;28;20425;-81
2023/07/07 10:53:21;;;;;;;4.88;2.40;;;26.90;89.50;;;;;;5074263;28;20415;-80
2023/07/07 10:56:08;;;;;;;6.57;2.87;;;26.60;87.10;;;;;;5059461;28;20437;-80
2023/07/07 10:58:52;;;;;;;5.32;2.58;;;26.20;85.60;;;;;;5079165;28;20456;-79
2023/07/07 11:01:29;;;;;;;4.55;2.60;;;26.70;87.00;;;;;;5077503;28;20757;-80
2023/07/07 11:04:49;;;;;;;4.25;2.53;;;27.00;87.00;;;;;;5078086;28;20929;-81
2023/07/07 11:07:40;;;;;;;6.78;2.58;;;26.80;86.70;;;;;;5031375;28;20813;-78
2023/07/07 11:10:22;;;;;;;5.63;2.42;;;27.10;86.40;;;;;;5086335;28;20422;-80
2023/07/07 11:13:01;;;;;;;4.55;2.33;;;27.60;87.10;;;;;;5079605;28;20439;-81
2023/07/07 11:15:46;;;;;;;5.13;2.35;;;27.70;87.20;;;;;;5082876;28;20431;-80
2023/07/07 11:18:12;;;;;;;5.38;2.30;;;27.70;85.60;;;;;;5075004;28;20421;-80
2023/07/07 11:20:56;;;;;;;4.57;2.67;;;27.60;87.30;;;;;;5092301;28;20491;-80
2023/07/07 11:23:29;;;;;;;6.00;2.42;;;26.60;86.80;;;;;;5058491;28;20419;-80
2023/07/07 11:26:14;;;;;;;5.38;2.53;;;27.00;86.90;;;;;;5063888;28;20472;-83
2023/07/07 11:29:12;;;;;;;5.55;2.70;;;27.10;86.20;;;;;;5087050;28;20948;-82
2023/07/07 11:31:47;;;;;;;6.88;2.70;;;26.40;85.50;;;;;;5075792;28;20471;-83
2023/07/07 11:34:34;;;;;;;6.03;2.60;;;26.40;86.30;;;;;;5085680;28;20430;-83
2023/07/07 11:37:20;;;;;;;4.45;2.25;;;27.80;85.20;;;;;;5077146;28;20407;-83
2023/07/07 11:40:08;;;;;;;7.00;2.78;;;27.30;86.20;;;;;;5077337;28;20400;-82
2023/07/07 11:43:00;;;;;;;4.90;2.35;;;27.60;85.30;;;;;;5073452;28;20488;-79
2023/07/07 11:45:31;;;;;;;5.57;2.70;;;27.80;86.00;;;;;;5048672;28;20540;-79
2023/07/07 11:47:59;;;;;;;4.93;2.60;;;27.70;83.20;;;;;;5081206;28;20417;-79
2023/07/07 11:50:31;;;;;;;6.50;2.50;;;28.50;83.50;;;;;;5088382;28;20487;-78
2023/07/07 11:53:25;;;;;;;5.50;2.53;;;27.90;84.60;;;;;;5066943;28;21005;-78
2023/07/07 11:55:59;;;;;;;5.43;2.40;;;28.70;80.90;;;;;;5075822;28;20766;-78
2023/07/07 11:59:26;;;;;;;5.50;2.50;;;28.50;81.50;;;;;;5081597;28;20441;-78
2023/07/07 12:01:55;;;;;;;4.70;2.30;;;28.60;79.60;;;;;;4994895;28;20411;-78
2023/07/07 12:04:39;;;;;;;4.90;2.60;;;28.70;82.90;;;;;;5090634;28;20453;-78
2023/07/07 12:07:17;;;;;;;5.20;2.67;;;28.60;81.00;;;;;;5095080;28;20924;-78
2023/07/07 12:09:59;;;;;;;5.07;2.80;;;28.30;82.10;;;;;;5076208;28;20476;-78
2023/07/07 12:12:38;;;;;;;5.97;2.80;;;27.70;80.80;;;;;;5056599;28;20430;-78
2023/07/07 12:15:25;;;;;;;4.03;2.58;;;27.80;80.00;;;;;;5075015;28;20420;-78
2023/07/07 12:18:02;;;;;;;5.88;2.38;;;28.60;80.50;;;;;;5069743;28;20430;-78
2023/07/07 12:20:34;;;;;;;3.83;2.45;;;29.20;80.50;;;;;;5080389;28;20409;-78
2023/07/07 12:23:04;;;;;;;5.15;2.63;;;29.00;79.80;;;;;;5059903;28;20418;-79
2023/07/07 12:25:30;;;;;;;5.95;2.80;;;29.30;79.50;;;;;;5074858;28;20422;-78
2023/07/07 12:27:57;;;;;;;4.40;2.47;;;29.00;78.20;;;;;;5082015;28;20421;-78
2023/07/07 12:30:27;;;;;;;5.60;2.50;;;28.60;76.00;;;;;;5075241;28;20532;-78
2023/07/07 12:32:54;;;;;;;7.38;2.63;;;29.40;74.90;;;;;;5081392;28;20429;-79
2023/07/07 12:35:36;;;;;;;4.90;2.30;;;29.00;75.20;;;;;;5081496;28;20573;-79
2023/07/07 12:38:20;;;;;;;4.97;2.70;;;28.60;75.40;;;;;;5068894;28;20508;-78
2023/07/07 12:40:46;;;;;;;5.22;2.60;;;28.80;76.40;;;;;;5076815;28;20941;-78
2023/07/07 12:43:27;;;;;;;5.95;2.67;;;28.20;75.30;;;;;;5084388;28;20523;-79
2023/07/07 12:45:55;;;;;;;5.13;2.90;;;28.20;77.60;;;;;;5074375;28;20398;-80
2023/07/07 12:48:27;;;;;;;5.20;2.58;;;28.50;78.90;;;;;;5083165;28;20418;-80
2023/07/07 12:51:01;;;;;;;4.88;2.75;;;28.80;76.50;;;;;;5075953;28;20408;-79
2023/07/07 12:53:27;;;;;;;6.07;2.70;;;28.70;73.90;;;;;;5075536;28;20411;-79
2023/07/07 12:56:16;;;;;;;4.95;2.70;;;29.00;75.00;;;;;;5080663;28;21033;-78
2023/07/07 12:58:45;;;;;;;5.13;2.65;;;28.80;76.00;;;;;;5053795;28;20451;-79
2023/07/07 13:01:14;;;;;;;3.90;2.60;;;28.90;76.30;;;;;;5066076;28;20761;-79
2023/07/07 13:04:05;;;;;;;3.83;2.40;;;29.20;75.50;;;;;;5070973;28;20404;-78
2023/07/07 13:06:30;;;;;;;4.27;2.80;;;29.50;73.10;;;;;;5073950;28;20452;-78
2023/07/07 13:09:16;;;;;;;4.78;2.80;;;28.90;74.50;;;;;;5083772;28;20814;-78
2023/07/07 13:11:47;;;;;;;3.92;2.42;;;29.50;73.80;;;;;;5074476;28;20519;-78
2023/07/07 13:14:41;;;;;;;4.78;2.60;;;29.90;73.10;;;;;;5061851;28;20835;-78